sensor_id;sensor_type;location;lat;lon;timestamp;temperature;humidity
8231;DHT22;4156;50.908;6.974;2023-02-05T00:02:14;9.40;99.90
8231;DHT22;4156;50.908;6.974;2023-02-05T00:04:39;9.40;99.90
8231;DHT22;4156;50.908;6.974;2023-02-05T00:07:05;9.40;99.90
8231;DHT22;4156;50.908;6.974;2023-02-05T00:09:31;9.40;99.90
8231;DHT22;4156;50.908;6.974;2023-02-05T00:11:57;9.40;99.90
8231;DHT22;4156;50.908;6.974;2023-02-05T00:14:24;9.40;99.90
8231;DHT22;4156;50.908;6.974;2023-02-05T00:16:50;9.40;99.90
8231;DHT22;4156;50.908;6.974;2023-02-05T00:19:16;9.30;99.90
8231;DHT22;4156;50.908;6.974;2023-02-05T00:21:42;9.30;99.90
8231;DHT22;4156;50.908;6.974;2023-02-05T00:24:09;9.40;99.90
8231;DHT22;4156;50.908;6.974;2023-02-05T00:26:35;9.40;99.90
8231;DHT22;4156;50.908;6.974;2023-02-05T00:29:01;9.30;99.90
8231;DHT22;4156;50.908;6.974;2023-02-05T00:31:26;9.30;99.90
8231;DHT22;4156;50.908;6.974;2023-02-05T00:33:52;9.30;99.90
8231;DHT22;4156;50.908;6.974;2023-02-05T00:36:19;9.30;99.90
8231;DHT22;4156;50.908;6.974;2023-02-05T00:38:45;9.30;99.90
8231;DHT22;4156;50.908;6.974;2023-02-05T00:41:11;9.30;99.90
8231;DHT22;4156;50.908;6.974;2023-02-05T00:43:38;9.30;99.90
8231;DHT22;4156;50.908;6.974;2023-02-05T00:46:03;9.30;99.90
8231;DHT22;4156;50.908;6.974;2023-02-05T00:48:29;9.30;99.90
8231;DHT22;4156;50.908;6.974;2023-02-05T00:50:55;9.20;99.90
8231;DHT22;4156;50.908;6.974;2023-02-05T00:53:21;9.30;99.90
8231;DHT22;4156;50.908;6.974;2023-02-05T00:55:47;9.20;99.90
8231;DHT22;4156;50.908;6.974;2023-02-05T00:58:12;9.20;99.90
8231;DHT22;4156;50.908;6.974;2023-02-05T01:00:38;9.20;99.90
8231;DHT22;4156;50.908;6.974;2023-02-05T01:03:04;9.20;99.90
8231;DHT22;4156;50.908;6.974;2023-02-05T01:05:30;9.20;99.90
8231;DHT22;4156;50.908;6.974;2023-02-05T01:07:56;9.20;99.90
8231;DHT22;4156;50.908;6.974;2023-02-05T01:10:22;9.20;99.90
8231;DHT22;4156;50.908;6.974;2023-02-05T01:12:48;9.20;99.90
8231;DHT22;4156;50.908;6.974;2023-02-05T01:15:14;9.10;99.90
8231;DHT22;4156;50.908;6.974;2023-02-05T01:17:40;9.10;99.90
8231;DHT22;4156;50.908;6.974;2023-02-05T01:20:07;9.10;99.90
8231;DHT22;4156;50.908;6.974;2023-02-05T01:22:33;9.00;99.90
8231;DHT22;4156;50.908;6.974;2023-02-05T01:24:58;9.00;99.90
8231;DHT22;4156;50.908;6.974;2023-02-05T01:27:25;9.00;99.90
8231;DHT22;4156;50.908;6.974;2023-02-05T01:29:50;9.00;99.90
8231;DHT22;4156;50.908;6.974;2023-02-05T01:32:17;9.00;99.90
8231;DHT22;4156;50.908;6.974;2023-02-05T01:34:43;9.00;99.90
8231;DHT22;4156;50.908;6.974;2023-02-05T01:37:09;9.00;99.90
8231;DHT22;4156;50.908;6.974;2023-02-05T01:39:35;9.00;99.90
8231;DHT22;4156;50.908;6.974;2023-02-05T01:42:02;8.90;99.90
8231;DHT22;4156;50.908;6.974;2023-02-05T01:44:29;8.90;99.90
8231;DHT22;4156;50.908;6.974;2023-02-05T01:46:55;8.90;99.90
8231;DHT22;4156;50.908;6.974;2023-02-05T01:49:24;8.90;99.90
8231;DHT22;4156;50.908;6.974;2023-02-05T01:51:52;8.90;99.90
8231;DHT22;4156;50.908;6.974;2023-02-05T01:54:21;8.90;99.90
8231;DHT22;4156;50.908;6.974;2023-02-05T01:56:51;8.90;99.90
8231;DHT22;4156;50.908;6.974;2023-02-05T01:59:22;8.90;99.90
8231;DHT22;4156;50.908;6.974;2023-02-05T02:01:52;8.90;99.90
8231;DHT22;4156;50.908;6.974;2023-02-05T02:04:31;8.90;99.90
8231;DHT22;4156;50.908;6.974;2023-02-05T02:07:00;8.90;99.90
8231;DHT22;4156;50.908;6.974;2023-02-05T02:09:26;8.90;99.90
8231;DHT22;4156;50.908;6.974;2023-02-05T02:11:52;8.90;99.90
8231;DHT22;4156;50.908;6.974;2023-02-05T02:14:19;8.90;99.90
8231;DHT22;4156;50.908;6.974;2023-02-05T02:16:45;8.90;99.90
8231;DHT22;4156;50.908;6.974;2023-02-05T02:19:27;8.90;99.90
8231;DHT22;4156;50.908;6.974;2023-02-05T02:27:52;8.70;99.90
8231;DHT22;4156;50.908;6.974;2023-02-05T02:30:44;8.70;99.90
8231;DHT22;4156;50.908;6.974;2023-02-05T02:33:21;8.70;99.90
8231;DHT22;4156;50.908;6.974;2023-02-05T02:36:02;8.70;99.90
8231;DHT22;4156;50.908;6.974;2023-02-05T02:41:25;8.70;99.90
8231;DHT22;4156;50.908;6.974;2023-02-05T02:43:56;8.70;99.90
8231;DHT22;4156;50.908;6.974;2023-02-05T02:46:23;8.70;99.90
8231;DHT22;4156;50.908;6.974;2023-02-05T02:48:54;8.70;99.90
8231;DHT22;4156;50.908;6.974;2023-02-05T02:51:21;8.70;99.90
8231;DHT22;4156;50.908;6.974;2023-02-05T02:53:51;8.70;99.90
8231;DHT22;4156;50.908;6.974;2023-02-05T02:56:18;8.70;99.90
8231;DHT22;4156;50.908;6.974;2023-02-05T02:58:47;8.70;99.90
8231;DHT22;4156;50.908;6.974;2023-02-05T03:01:16;8.70;99.90
8231;DHT22;4156;50.908;6.974;2023-02-05T03:03:51;8.70;99.90
8231;DHT22;4156;50.908;6.974;2023-02-05T03:06:19;8.70;99.90
8231;DHT22;4156;50.908;6.974;2023-02-05T03:08:49;8.70;99.90
8231;DHT22;4156;50.908;6.974;2023-02-05T03:11:16;8.70;99.90
8231;DHT22;4156;50.908;6.974;2023-02-05T03:13:43;8.80;99.90
8231;DHT22;4156;50.908;6.974;2023-02-05T03:16:09;8.70;99.90
8231;DHT22;4156;50.908;6.974;2023-02-05T03:18:35;8.70;99.90
8231;DHT22;4156;50.908;6.974;2023-02-05T03:21:12;8.70;99.90
8231;DHT22;4156;50.908;6.974;2023-02-05T03:23:39;8.70;99.90
8231;DHT22;4156;50.908;6.974;2023-02-05T03:26:17;8.70;99.90
8231;DHT22;4156;50.908;6.974;2023-02-05T03:28:43;8.70;99.90
8231;DHT22;4156;50.908;6.974;2023-02-05T03:31:18;8.70;99.90
8231;DHT22;4156;50.908;6.974;2023-02-05T03:33:55;8.70;99.90
8231;DHT22;4156;50.908;6.974;2023-02-05T03:36:42;8.70;99.90
8231;DHT22;4156;50.908;6.974;2023-02-05T03:42:41;8.70;99.90
8231;DHT22;4156;50.908;6.974;2023-02-05T03:45:20;8.70;99.90
8231;DHT22;4156;50.908;6.974;2023-02-05T03:50:45;8.70;99.90
8231;DHT22;4156;50.908;6.974;2023-02-05T03:55:47;8.70;99.90
8231;DHT22;4156;50.908;6.974;2023-02-05T03:58:41;8.70;99.90
8231;DHT22;4156;50.908;6.974;2023-02-05T04:01:09;8.70;99.90
8231;DHT22;4156;50.908;6.974;2023-02-05T04:03:35;8.60;99.90
8231;DHT22;4156;50.908;6.974;2023-02-05T04:06:00;8.60;99.90
8231;DHT22;4156;50.908;6.974;2023-02-05T04:08:26;8.60;99.90
8231;DHT22;4156;50.908;6.974;2023-02-05T04:10:52;8.60;99.90
8231;DHT22;4156;50.908;6.974;2023-02-05T04:13:17;8.60;99.90
8231;DHT22;4156;50.908;6.974;2023-02-05T04:15:43;8.60;99.90
8231;DHT22;4156;50.908;6.974;2023-02-05T04:18:08;8.60;99.90
8231;DHT22;4156;50.908;6.974;2023-02-05T04:20:34;8.60;99.90
8231;DHT22;4156;50.908;6.974;2023-02-05T04:22:59;8.60;99.90
8231;DHT22;4156;50.908;6.974;2023-02-05T04:25:25;8.60;99.90
8231;DHT22;4156;50.908;6.974;2023-02-05T04:27:50;8.60;99.90
8231;DHT22;4156;50.908;6.974;2023-02-05T04:30:16;8.60;99.90
8231;DHT22;4156;50.908;6.974;2023-02-05T04:32:42;8.60;99.90
8231;DHT22;4156;50.908;6.974;2023-02-05T04:35:07;8.60;99.90
8231;DHT22;4156;50.908;6.974;2023-02-05T04:37:33;8.60;99.90
8231;DHT22;4156;50.908;6.974;2023-02-05T04:39:58;8.60;99.90
8231;DHT22;4156;50.908;6.974;2023-02-05T04:42:24;8.60;99.90
8231;DHT22;4156;50.908;6.974;2023-02-05T04:44:49;8.50;99.90
8231;DHT22;4156;50.908;6.974;2023-02-05T04:47:17;8.50;99.90
8231;DHT22;4156;50.908;6.974;2023-02-05T04:49:42;8.50;99.90
8231;DHT22;4156;50.908;6.974;2023-02-05T04:52:08;8.50;99.90
8231;DHT22;4156;50.908;6.974;2023-02-05T04:54:35;8.50;99.90
8231;DHT22;4156;50.908;6.974;2023-02-05T04:57:00;8.50;99.90
8231;DHT22;4156;50.908;6.974;2023-02-05T04:59:26;8.50;99.90
8231;DHT22;4156;50.908;6.974;2023-02-05T05:01:54;8.50;99.90
8231;DHT22;4156;50.908;6.974;2023-02-05T05:04:19;8.50;99.90
8231;DHT22;4156;50.908;6.974;2023-02-05T05:06:45;8.50;99.90
8231;DHT22;4156;50.908;6.974;2023-02-05T05:09:10;8.50;99.90
8231;DHT22;4156;50.908;6.974;2023-02-05T05:11:36;8.50;99.90
8231;DHT22;4156;50.908;6.974;2023-02-05T05:14:01;8.50;99.90
8231;DHT22;4156;50.908;6.974;2023-02-05T05:16:27;8.50;99.90
8231;DHT22;4156;50.908;6.974;2023-02-05T05:18:52;8.50;99.90
8231;DHT22;4156;50.908;6.974;2023-02-05T05:21:18;8.50;99.90
8231;DHT22;4156;50.908;6.974;2023-02-05T05:23:43;8.50;99.90
8231;DHT22;4156;50.908;6.974;2023-02-05T05:26:11;8.50;99.90
8231;DHT22;4156;50.908;6.974;2023-02-05T05:28:37;8.50;99.90
8231;DHT22;4156;50.908;6.974;2023-02-05T05:31:14;8.50;99.90
8231;DHT22;4156;50.908;6.974;2023-02-05T05:33:44;8.50;99.90
8231;DHT22;4156;50.908;6.974;2023-02-05T05:36:10;8.60;99.90
8231;DHT22;4156;50.908;6.974;2023-02-05T05:38:36;8.60;99.90
8231;DHT22;4156;50.908;6.974;2023-02-05T05:41:02;8.60;99.90
8231;DHT22;4156;50.908;6.974;2023-02-05T05:43:46;8.60;99.90
8231;DHT22;4156;50.908;6.974;2023-02-05T05:46:17;8.60;99.90
8231;DHT22;4156;50.908;6.974;2023-02-05T05:48:50;8.60;99.90
8231;DHT22;4156;50.908;6.974;2023-02-05T05:51:16;8.60;99.90
8231;DHT22;4156;50.908;6.974;2023-02-05T05:53:42;8.70;99.90
8231;DHT22;4156;50.908;6.974;2023-02-05T05:56:07;8.70;99.90
8231;DHT22;4156;50.908;6.974;2023-02-05T05:58:33;8.70;99.90
8231;DHT22;4156;50.908;6.974;2023-02-05T06:00:58;8.70;99.90
8231;DHT22;4156;50.908;6.974;2023-02-05T06:03:24;8.70;99.90
8231;DHT22;4156;50.908;6.974;2023-02-05T06:05:50;8.70;99.90
8231;DHT22;4156;50.908;6.974;2023-02-05T06:08:16;8.70;99.90
8231;DHT22;4156;50.908;6.974;2023-02-05T06:10:42;8.70;99.90
8231;DHT22;4156;50.908;6.974;2023-02-05T06:13:08;8.70;99.90
8231;DHT22;4156;50.908;6.974;2023-02-05T06:15:33;8.70;99.90
8231;DHT22;4156;50.908;6.974;2023-02-05T06:17:59;8.70;99.90
8231;DHT22;4156;50.908;6.974;2023-02-05T06:20:25;8.70;99.90
8231;DHT22;4156;50.908;6.974;2023-02-05T06:22:50;8.70;99.90
8231;DHT22;4156;50.908;6.974;2023-02-05T06:25:16;8.70;99.90
8231;DHT22;4156;50.908;6.974;2023-02-05T06:27:42;8.70;99.90
8231;DHT22;4156;50.908;6.974;2023-02-05T06:30:08;8.70;99.90
8231;DHT22;4156;50.908;6.974;2023-02-05T06:32:34;8.70;99.90
8231;DHT22;4156;50.908;6.974;2023-02-05T06:34:59;8.70;99.90
8231;DHT22;4156;50.908;6.974;2023-02-05T06:37:25;8.70;99.90
8231;DHT22;4156;50.908;6.974;2023-02-05T06:39:53;8.70;99.90
8231;DHT22;4156;50.908;6.974;2023-02-05T06:42:18;8.70;99.90
8231;DHT22;4156;50.908;6.974;2023-02-05T06:44:44;8.70;99.90
8231;DHT22;4156;50.908;6.974;2023-02-05T06:47:09;8.80;99.90
8231;DHT22;4156;50.908;6.974;2023-02-05T06:49:35;8.80;99.90
8231;DHT22;4156;50.908;6.974;2023-02-05T06:52:00;8.80;99.90
8231;DHT22;4156;50.908;6.974;2023-02-05T06:54:26;8.80;99.90
8231;DHT22;4156;50.908;6.974;2023-02-05T06:56:52;8.80;99.90
8231;DHT22;4156;50.908;6.974;2023-02-05T06:59:17;8.80;99.90
8231;DHT22;4156;50.908;6.974;2023-02-05T07:01:43;8.80;99.90
8231;DHT22;4156;50.908;6.974;2023-02-05T07:04:08;8.80;99.90
8231;DHT22;4156;50.908;6.974;2023-02-05T07:06:34;8.80;99.90
8231;DHT22;4156;50.908;6.974;2023-02-05T07:08:59;8.80;99.90
8231;DHT22;4156;50.908;6.974;2023-02-05T07:11:25;8.80;99.90
8231;DHT22;4156;50.908;6.974;2023-02-05T07:13:50;8.80;99.90
8231;DHT22;4156;50.908;6.974;2023-02-05T07:16:16;8.80;99.90
8231;DHT22;4156;50.908;6.974;2023-02-05T07:18:42;8.80;99.90
8231;DHT22;4156;50.908;6.974;2023-02-05T07:21:09;8.80;99.90
8231;DHT22;4156;50.908;6.974;2023-02-05T07:23:35;8.80;99.90
8231;DHT22;4156;50.908;6.974;2023-02-05T07:26:08;8.80;99.90
8231;DHT22;4156;50.908;6.974;2023-02-05T07:28:34;8.80;99.90
8231;DHT22;4156;50.908;6.974;2023-02-05T07:31:08;8.80;99.90
8231;DHT22;4156;50.908;6.974;2023-02-05T07:33:34;8.80;99.90
8231;DHT22;4156;50.908;6.974;2023-02-05T07:36:05;8.80;99.90
8231;DHT22;4156;50.908;6.974;2023-02-05T07:38:32;8.80;99.90
8231;DHT22;4156;50.908;6.974;2023-02-05T07:40:57;8.80;99.90
8231;DHT22;4156;50.908;6.974;2023-02-05T07:43:23;8.80;99.90
8231;DHT22;4156;50.908;6.974;2023-02-05T07:45:59;8.80;99.90
8231;DHT22;4156;50.908;6.974;2023-02-05T07:48:25;8.80;99.90
8231;DHT22;4156;50.908;6.974;2023-02-05T07:50:51;8.90;99.90
8231;DHT22;4156;50.908;6.974;2023-02-05T07:53:16;8.80;99.90
8231;DHT22;4156;50.908;6.974;2023-02-05T07:55:42;8.80;99.90
8231;DHT22;4156;50.908;6.974;2023-02-05T07:58:07;8.80;99.90
8231;DHT22;4156;50.908;6.974;2023-02-05T08:00:33;8.80;99.90
8231;DHT22;4156;50.908;6.974;2023-02-05T08:02:59;8.80;99.90
8231;DHT22;4156;50.908;6.974;2023-02-05T08:05:24;8.80;99.90
8231;DHT22;4156;50.908;6.974;2023-02-05T08:07:50;8.80;99.90
8231;DHT22;4156;50.908;6.974;2023-02-05T08:10:16;8.80;99.90
8231;DHT22;4156;50.908;6.974;2023-02-05T08:12:41;8.80;99.90
8231;DHT22;4156;50.908;6.974;2023-02-05T08:15:07;8.80;99.90
8231;DHT22;4156;50.908;6.974;2023-02-05T08:17:33;8.90;99.90
8231;DHT22;4156;50.908;6.974;2023-02-05T08:19:58;8.90;99.90
8231;DHT22;4156;50.908;6.974;2023-02-05T08:22:31;8.90;99.90
8231;DHT22;4156;50.908;6.974;2023-02-05T08:24:58;8.90;99.90
8231;DHT22;4156;50.908;6.974;2023-02-05T08:27:23;8.90;99.90
8231;DHT22;4156;50.908;6.974;2023-02-05T08:29:49;8.80;99.90
8231;DHT22;4156;50.908;6.974;2023-02-05T08:32:14;8.90;99.90
8231;DHT22;4156;50.908;6.974;2023-02-05T08:34:40;8.80;99.90
8231;DHT22;4156;50.908;6.974;2023-02-05T08:37:05;8.80;99.90
8231;DHT22;4156;50.908;6.974;2023-02-05T08:39:31;8.80;99.90
8231;DHT22;4156;50.908;6.974;2023-02-05T08:41:56;8.80;99.90
8231;DHT22;4156;50.908;6.974;2023-02-05T08:44:22;8.80;99.90
8231;DHT22;4156;50.908;6.974;2023-02-05T08:46:47;8.80;99.90
8231;DHT22;4156;50.908;6.974;2023-02-05T08:49:13;8.80;99.90
8231;DHT22;4156;50.908;6.974;2023-02-05T08:51:38;8.80;99.90
8231;DHT22;4156;50.908;6.974;2023-02-05T08:54:04;8.80;99.90
8231;DHT22;4156;50.908;6.974;2023-02-05T08:56:33;8.80;99.90
8231;DHT22;4156;50.908;6.974;2023-02-05T08:58:58;8.80;99.90
8231;DHT22;4156;50.908;6.974;2023-02-05T09:01:24;8.80;99.90
8231;DHT22;4156;50.908;6.974;2023-02-05T09:03:50;8.80;99.90
8231;DHT22;4156;50.908;6.974;2023-02-05T09:06:15;8.80;99.90
8231;DHT22;4156;50.908;6.974;2023-02-05T09:08:41;8.80;99.90
8231;DHT22;4156;50.908;6.974;2023-02-05T09:11:07;8.80;99.90
8231;DHT22;4156;50.908;6.974;2023-02-05T09:13:33;8.90;99.90
8231;DHT22;4156;50.908;6.974;2023-02-05T09:15:58;8.90;99.90
8231;DHT22;4156;50.908;6.974;2023-02-05T09:18:25;8.90;99.90
8231;DHT22;4156;50.908;6.974;2023-02-05T09:20:51;8.90;99.90
8231;DHT22;4156;50.908;6.974;2023-02-05T09:23:18;8.90;99.90
8231;DHT22;4156;50.908;6.974;2023-02-05T09:25:44;8.80;99.90
8231;DHT22;4156;50.908;6.974;2023-02-05T09:28:11;8.80;99.90
8231;DHT22;4156;50.908;6.974;2023-02-05T09:30:39;8.80;99.90
8231;DHT22;4156;50.908;6.974;2023-02-05T09:33:05;8.80;99.90
8231;DHT22;4156;50.908;6.974;2023-02-05T09:35:31;8.70;99.90
8231;DHT22;4156;50.908;6.974;2023-02-05T09:37:57;8.70;99.90
8231;DHT22;4156;50.908;6.974;2023-02-05T09:40:28;8.70;99.90
8231;DHT22;4156;50.908;6.974;2023-02-05T09:45:42;8.70;99.90
8231;DHT22;4156;50.908;6.974;2023-02-05T09:50:59;8.70;99.90
8231;DHT22;4156;50.908;6.974;2023-02-05T09:53:28;8.60;99.90
8231;DHT22;4156;50.908;6.974;2023-02-05T09:55:56;8.60;99.90
8231;DHT22;4156;50.908;6.974;2023-02-05T09:58:28;8.60;99.90
8231;DHT22;4156;50.908;6.974;2023-02-05T10:04:07;8.60;99.90
8231;DHT22;4156;50.908;6.974;2023-02-05T10:07:13;8.60;99.90
8231;DHT22;4156;50.908;6.974;2023-02-05T10:12:50;8.60;99.90
8231;DHT22;4156;50.908;6.974;2023-02-05T10:15:36;8.60;99.90
8231;DHT22;4156;50.908;6.974;2023-02-05T10:26:12;8.60;99.90
8231;DHT22;4156;50.908;6.974;2023-02-05T10:31:40;8.60;99.90
8231;DHT22;4156;50.908;6.974;2023-02-05T10:36:47;8.60;99.90
8231;DHT22;4156;50.908;6.974;2023-02-05T10:39:16;8.60;99.90
8231;DHT22;4156;50.908;6.974;2023-02-05T10:41:45;8.60;99.90
8231;DHT22;4156;50.908;6.974;2023-02-05T10:44:30;8.60;99.90
8231;DHT22;4156;50.908;6.974;2023-02-05T10:47:06;8.60;99.90
8231;DHT22;4156;50.908;6.974;2023-02-05T10:49:56;8.60;99.90
8231;DHT22;4156;50.908;6.974;2023-02-05T10:52:25;8.60;99.90
8231;DHT22;4156;50.908;6.974;2023-02-05T10:54:51;8.60;99.90
8231;DHT22;4156;50.908;6.974;2023-02-05T10:57:19;8.60;99.90
8231;DHT22;4156;50.908;6.974;2023-02-05T11:00:03;8.50;99.90
8231;DHT22;4156;50.908;6.974;2023-02-05T11:02:37;8.50;99.90
8231;DHT22;4156;50.908;6.974;2023-02-05T11:05:12;8.50;99.90
8231;DHT22;4156;50.908;6.974;2023-02-05T11:07:47;8.50;99.90
8231;DHT22;4156;50.908;6.974;2023-02-05T11:12:39;8.50;99.90
8231;DHT22;4156;50.908;6.974;2023-02-05T11:15:14;8.50;99.90
8231;DHT22;4156;50.908;6.974;2023-02-05T11:17:42;8.50;99.90
8231;DHT22;4156;50.908;6.974;2023-02-05T11:22:42;8.50;99.90
8231;DHT22;4156;50.908;6.974;2023-02-05T11:28:01;8.50;99.90
8231;DHT22;4156;50.908;6.974;2023-02-05T11:30:34;8.50;99.90
8231;DHT22;4156;50.908;6.974;2023-02-05T11:41:07;8.50;99.90
8231;DHT22;4156;50.908;6.974;2023-02-05T11:43:48;8.50;99.90
8231;DHT22;4156;50.908;6.974;2023-02-05T11:46:20;8.50;99.90
8231;DHT22;4156;50.908;6.974;2023-02-05T11:49:00;8.50;99.90
8231;DHT22;4156;50.908;6.974;2023-02-05T11:56:40;8.50;99.90
8231;DHT22;4156;50.908;6.974;2023-02-05T11:59:19;8.50;99.90
8231;DHT22;4156;50.908;6.974;2023-02-05T12:01:46;8.60;99.90
8231;DHT22;4156;50.908;6.974;2023-02-05T12:09:19;8.50;99.90
8231;DHT22;4156;50.908;6.974;2023-02-05T12:12:03;8.60;99.90
8231;DHT22;4156;50.908;6.974;2023-02-05T12:14:37;8.50;99.90
8231;DHT22;4156;50.908;6.974;2023-02-05T12:23:08;8.50;99.90
8231;DHT22;4156;50.908;6.974;2023-02-05T12:28:41;8.50;99.90
8231;DHT22;4156;50.908;6.974;2023-02-05T12:34:35;8.50;99.90
8231;DHT22;4156;50.908;6.974;2023-02-05T12:42:52;8.50;99.90
8231;DHT22;4156;50.908;6.974;2023-02-05T12:45:31;8.50;99.90
8231;DHT22;4156;50.908;6.974;2023-02-05T12:50:50;8.50;99.90
8231;DHT22;4156;50.908;6.974;2023-02-05T12:58:44;8.50;99.90
8231;DHT22;4156;50.908;6.974;2023-02-05T13:01:15;8.50;99.90
8231;DHT22;4156;50.908;6.974;2023-02-05T13:03:47;8.50;99.90
8231;DHT22;4156;50.908;6.974;2023-02-05T13:06:30;8.50;99.90
8231;DHT22;4156;50.908;6.974;2023-02-05T13:09:04;8.50;99.90
8231;DHT22;4156;50.908;6.974;2023-02-05T13:11:44;8.50;99.90
8231;DHT22;4156;50.908;6.974;2023-02-05T13:14:16;8.50;99.90
8231;DHT22;4156;50.908;6.974;2023-02-05T13:19:39;8.60;99.90
8231;DHT22;4156;50.908;6.974;2023-02-05T13:22:21;8.50;99.90
8231;DHT22;4156;50.908;6.974;2023-02-05T13:25:19;8.50;99.90
8231;DHT22;4156;50.908;6.974;2023-02-05T13:31:27;8.40;99.90
8231;DHT22;4156;50.908;6.974;2023-02-05T13:33:52;8.40;99.90
8231;DHT22;4156;50.908;6.974;2023-02-05T13:42:33;8.40;99.90
8231;DHT22;4156;50.908;6.974;2023-02-05T13:45:26;8.40;99.90
8231;DHT22;4156;50.908;6.974;2023-02-05T13:53:13;8.40;99.90
8231;DHT22;4156;50.908;6.974;2023-02-05T13:56:08;8.40;99.90
8231;DHT22;4156;50.908;6.974;2023-02-05T13:58:52;8.40;99.90
8231;DHT22;4156;50.908;6.974;2023-02-05T14:01:23;8.40;99.90
8231;DHT22;4156;50.908;6.974;2023-02-05T14:04:03;8.40;99.90
8231;DHT22;4156;50.908;6.974;2023-02-05T14:06:37;8.40;99.90
8231;DHT22;4156;50.908;6.974;2023-02-05T14:09:06;8.40;99.90
8231;DHT22;4156;50.908;6.974;2023-02-05T14:11:53;8.40;99.90
8231;DHT22;4156;50.908;6.974;2023-02-05T14:14:34;8.40;99.90
8231;DHT22;4156;50.908;6.974;2023-02-05T14:22:38;8.40;99.90
8231;DHT22;4156;50.908;6.974;2023-02-05T14:30:58;8.40;99.90
8231;DHT22;4156;50.908;6.974;2023-02-05T14:38:57;8.40;99.90
8231;DHT22;4156;50.908;6.974;2023-02-05T14:41:32;8.40;99.90
8231;DHT22;4156;50.908;6.974;2023-02-05T14:44:22;8.40;99.90
8231;DHT22;4156;50.908;6.974;2023-02-05T14:47:01;8.40;99.90
8231;DHT22;4156;50.908;6.974;2023-02-05T14:49:40;8.30;99.90
8231;DHT22;4156;50.908;6.974;2023-02-05T14:52:20;8.30;99.90
8231;DHT22;4156;50.908;6.974;2023-02-05T14:54:52;8.30;99.90
8231;DHT22;4156;50.908;6.974;2023-02-05T14:57:28;8.30;99.90
8231;DHT22;4156;50.908;6.974;2023-02-05T15:00:06;8.30;99.90
8231;DHT22;4156;50.908;6.974;2023-02-05T15:13:36;8.30;99.90
8231;DHT22;4156;50.908;6.974;2023-02-05T15:18:58;8.30;99.90
8231;DHT22;4156;50.908;6.974;2023-02-05T15:21:33;8.30;99.90
8231;DHT22;4156;50.908;6.974;2023-02-05T15:24:14;8.30;99.90
8231;DHT22;4156;50.908;6.974;2023-02-05T15:26:59;8.30;99.90
8231;DHT22;4156;50.908;6.974;2023-02-05T15:29:36;8.30;99.90
8231;DHT22;4156;50.908;6.974;2023-02-05T15:32:21;8.30;99.90
8231;DHT22;4156;50.908;6.974;2023-02-05T15:34:54;8.30;99.90
8231;DHT22;4156;50.908;6.974;2023-02-05T15:37:41;8.20;99.90
8231;DHT22;4156;50.908;6.974;2023-02-05T15:40:23;8.20;99.90
8231;DHT22;4156;50.908;6.974;2023-02-05T15:42:56;8.20;99.90
8231;DHT22;4156;50.908;6.974;2023-02-05T15:45:29;8.20;99.90
8231;DHT22;4156;50.908;6.974;2023-02-05T15:48:26;8.20;99.90
8231;DHT22;4156;50.908;6.974;2023-02-05T15:50:55;8.20;99.90
8231;DHT22;4156;50.908;6.974;2023-02-05T15:53:45;8.20;99.90
8231;DHT22;4156;50.908;6.974;2023-02-05T15:58:49;8.30;99.90
8231;DHT22;4156;50.908;6.974;2023-02-05T16:03:52;8.30;99.90
8231;DHT22;4156;50.908;6.974;2023-02-05T16:06:19;8.30;99.90
8231;DHT22;4156;50.908;6.974;2023-02-05T16:08:46;8.40;99.90
8231;DHT22;4156;50.908;6.974;2023-02-05T16:11:31;8.40;99.90
8231;DHT22;4156;50.908;6.974;2023-02-05T16:14:11;8.40;99.90
8231;DHT22;4156;50.908;6.974;2023-02-05T16:19:34;8.40;99.90
8231;DHT22;4156;50.908;6.974;2023-02-05T16:22:16;8.40;99.90
8231;DHT22;4156;50.908;6.974;2023-02-05T16:24:45;8.40;99.90
8231;DHT22;4156;50.908;6.974;2023-02-05T16:27:14;8.40;99.90
8231;DHT22;4156;50.908;6.974;2023-02-05T16:29:49;8.40;99.90
8231;DHT22;4156;50.908;6.974;2023-02-05T16:32:19;8.40;99.90
8231;DHT22;4156;50.908;6.974;2023-02-05T16:34:46;8.40;99.90
8231;DHT22;4156;50.908;6.974;2023-02-05T16:37:15;8.40;99.90
8231;DHT22;4156;50.908;6.974;2023-02-05T16:39:45;8.40;99.90
8231;DHT22;4156;50.908;6.974;2023-02-05T16:45:22;8.50;99.90
8231;DHT22;4156;50.908;6.974;2023-02-05T16:48:20;8.50;99.90
8231;DHT22;4156;50.908;6.974;2023-02-05T16:50:46;8.50;99.90
8231;DHT22;4156;50.908;6.974;2023-02-05T16:53:24;8.40;99.90
8231;DHT22;4156;50.908;6.974;2023-02-05T16:56:10;8.50;99.90
8231;DHT22;4156;50.908;6.974;2023-02-05T16:58:48;8.60;99.90
8231;DHT22;4156;50.908;6.974;2023-02-05T17:01:24;8.50;99.90
8231;DHT22;4156;50.908;6.974;2023-02-05T17:03:52;8.40;99.90
8231;DHT22;4156;50.908;6.974;2023-02-05T17:06:19;8.40;99.90
8231;DHT22;4156;50.908;6.974;2023-02-05T17:08:54;8.40;99.90
8231;DHT22;4156;50.908;6.974;2023-02-05T17:11:35;8.40;99.90
8231;DHT22;4156;50.908;6.974;2023-02-05T17:16:59;8.40;99.90
8231;DHT22;4156;50.908;6.974;2023-02-05T17:19:28;8.40;99.90
8231;DHT22;4156;50.908;6.974;2023-02-05T17:24:41;8.40;99.90
8231;DHT22;4156;50.908;6.974;2023-02-05T17:27:14;8.40;99.90
8231;DHT22;4156;50.908;6.974;2023-02-05T17:29:40;8.40;99.90
8231;DHT22;4156;50.908;6.974;2023-02-05T17:32:05;8.40;99.90
8231;DHT22;4156;50.908;6.974;2023-02-05T17:34:31;8.40;99.90
8231;DHT22;4156;50.908;6.974;2023-02-05T17:36:57;8.40;99.90
8231;DHT22;4156;50.908;6.974;2023-02-05T17:39:22;8.40;99.90
8231;DHT22;4156;50.908;6.974;2023-02-05T17:41:48;8.40;99.90
8231;DHT22;4156;50.908;6.974;2023-02-05T17:44:30;8.40;99.90
8231;DHT22;4156;50.908;6.974;2023-02-05T17:47:02;8.40;99.90
8231;DHT22;4156;50.908;6.974;2023-02-05T17:49:28;8.40;99.90
8231;DHT22;4156;50.908;6.974;2023-02-05T17:51:54;8.40;99.90
8231;DHT22;4156;50.908;6.974;2023-02-05T17:54:22;8.30;99.90
8231;DHT22;4156;50.908;6.974;2023-02-05T17:56:48;8.30;99.90
8231;DHT22;4156;50.908;6.974;2023-02-05T17:59:19;8.30;99.90
8231;DHT22;4156;50.908;6.974;2023-02-05T18:01:45;8.30;99.90
8231;DHT22;4156;50.908;6.974;2023-02-05T18:04:11;8.40;99.90
8231;DHT22;4156;50.908;6.974;2023-02-05T18:06:37;8.40;99.90
8231;DHT22;4156;50.908;6.974;2023-02-05T18:09:04;8.40;99.90
8231;DHT22;4156;50.908;6.974;2023-02-05T18:11:30;8.40;99.90
8231;DHT22;4156;50.908;6.974;2023-02-05T18:13:56;8.40;99.90
8231;DHT22;4156;50.908;6.974;2023-02-05T18:16:21;8.40;99.90
8231;DHT22;4156;50.908;6.974;2023-02-05T18:18:47;8.40;99.90
8231;DHT22;4156;50.908;6.974;2023-02-05T18:21:13;8.40;99.90
8231;DHT22;4156;50.908;6.974;2023-02-05T18:23:39;8.40;99.90
8231;DHT22;4156;50.908;6.974;2023-02-05T18:26:05;8.40;99.90
8231;DHT22;4156;50.908;6.974;2023-02-05T18:28:31;8.40;99.90
8231;DHT22;4156;50.908;6.974;2023-02-05T18:31:01;8.40;99.90
8231;DHT22;4156;50.908;6.974;2023-02-05T18:33:27;8.40;99.90
8231;DHT22;4156;50.908;6.974;2023-02-05T18:35:53;8.40;99.90
8231;DHT22;4156;50.908;6.974;2023-02-05T18:38:19;8.40;99.90
8231;DHT22;4156;50.908;6.974;2023-02-05T18:40:49;8.40;99.90
8231;DHT22;4156;50.908;6.974;2023-02-05T18:43:14;8.40;99.90
8231;DHT22;4156;50.908;6.974;2023-02-05T18:45:40;8.40;99.90
8231;DHT22;4156;50.908;6.974;2023-02-05T18:48:05;8.40;99.90
8231;DHT22;4156;50.908;6.974;2023-02-05T18:50:31;8.40;99.90
8231;DHT22;4156;50.908;6.974;2023-02-05T18:52:57;8.40;99.90
8231;DHT22;4156;50.908;6.974;2023-02-05T18:55:22;8.40;99.90
8231;DHT22;4156;50.908;6.974;2023-02-05T18:57:50;8.40;99.90
8231;DHT22;4156;50.908;6.974;2023-02-05T19:00:16;8.40;99.90
8231;DHT22;4156;50.908;6.974;2023-02-05T19:02:42;8.40;99.90
8231;DHT22;4156;50.908;6.974;2023-02-05T19:05:07;8.40;99.90
8231;DHT22;4156;50.908;6.974;2023-02-05T19:07:35;8.40;99.90
8231;DHT22;4156;50.908;6.974;2023-02-05T19:10:02;8.40;99.90
8231;DHT22;4156;50.908;6.974;2023-02-05T19:12:27;8.40;99.90
8231;DHT22;4156;50.908;6.974;2023-02-05T19:14:54;8.40;99.90